Time;durP1;ratioP1;P1;durP2;ratioP2;P2;SDS_P1;SDS_P2;PMS_P1;PMS_P2;Temp;Humidity;BMP_temperature;BMP_pressure;BME280_temperature;BME280_humidity;BME280_pressure;Samples;Min_cycle;Max_cycle;Signal;HPM_P1;HPM_P2
2022/04/19 00:00:37;;;;;;;7.80;4.80;;;4.50;99.90;;;;;;5092049;28;20385;-67
2022/04/19 00:03:05;;;;;;;6.43;4.53;;;4.50;99.90;;;;;;5091957;28;20208;-67
2022/04/19 00:05:33;;;;;;;7.40;4.73;;;4.40;99.90;;;;;;5092010;28;20207;-67
2022/04/19 00:08:00;;;;;;;7.13;4.50;;;4.40;99.90;;;;;;5092022;28;20223;-67
2022/04/19 00:10:28;;;;;;;5.60;4.37;;;4.40;99.90;;;;;;5091603;28;20200;-67
2022/04/19 00:12:55;;;;;;;6.43;4.67;;;4.40;99.90;;;;;;5091830;28;20204;-66
2022/04/19 00:15:24;;;;;;;7.87;4.70;;;4.30;99.90;;;;;;5092123;28;20572;-68
2022/04/19 00:17:51;;;;;;;7.27;4.43;;;4.30;99.90;;;;;;5091821;28;20203;-67
2022/04/19 00:20:18;;;;;;;6.93;4.83;;;4.30;99.90;;;;;;5091635;28;20253;-66
2022/04/19 00:22:44;;;;;;;7.10;4.53;;;4.30;99.90;;;;;;5091554;28;20200;-66
2022/04/19 00:25:12;;;;;;;6.23;4.30;;;4.30;99.90;;;;;;5091525;28;20212;-66
2022/04/19 00:27:38;;;;;;;6.70;4.70;;;4.30;99.90;;;;;;5091624;28;20219;-65
2022/04/19 00:30:06;;;;;;;6.33;4.80;;;4.30;99.90;;;;;;5091803;28;20218;-67
2022/04/19 00:32:34;;;;;;;6.77;4.63;;;4.20;99.90;;;;;;5091819;28;20214;-68
2022/04/19 00:35:01;;;;;;;8.27;5.00;;;4.20;99.90;;;;;;5091638;28;20443;-64
2022/04/19 00:37:28;;;;;;;6.10;4.83;;;4.10;99.90;;;;;;5091785;28;20201;-66
2022/04/19 00:39:58;;;;;;;7.40;5.20;;;4.10;99.90;;;;;;5091589;28;20287;-66
2022/04/19 00:42:27;;;;;;;7.93;5.53;;;4.00;99.90;;;;;;5091381;28;20206;-66
2022/04/19 00:44:54;;;;;;;9.50;6.20;;;4.10;99.90;;;;;;5091441;28;20208;-66
2022/04/19 00:47:21;;;;;;;8.50;5.73;;;4.00;99.90;;;;;;5091262;28;20240;-66
2022/04/19 00:49:50;;;;;;;8.80;6.10;;;4.00;99.90;;;;;;5091411;28;20558;-65
2022/04/19 00:52:17;;;;;;;8.53;5.77;;;3.90;99.90;;;;;;5091607;28;20208;-66
2022/04/19 00:54:47;;;;;;;8.00;5.83;;;3.90;99.90;;;;;;5092702;28;20210;-66
2022/04/19 00:57:14;;;;;;;7.63;5.70;;;3.90;99.90;;;;;;5095229;28;20662;-67
2022/04/19 00:59:42;;;;;;;8.40;6.07;;;3.90;99.90;;;;;;5094977;28;20689;-67
2022/04/19 01:02:09;;;;;;;7.57;5.33;;;3.90;99.90;;;;;;5095137;28;20210;-67
2022/04/19 01:04:36;;;;;;;8.03;5.67;;;3.80;99.90;;;;;;5094564;28;20210;-65
2022/04/19 01:07:04;;;;;;;7.43;5.10;;;3.80;99.90;;;;;;5095011;28;20682;-65
2022/04/19 01:09:32;;;;;;;6.60;4.90;;;3.80;99.90;;;;;;5094730;28;20215;-66
2022/04/19 01:14:45;;;;;;;7.27;5.23;;;3.70;99.90;;;;;;5094533;28;20187;-66
2022/04/19 01:17:13;;;;;;;7.40;5.17;;;3.70;99.90;;;;;;5094835;28;20662;-66
2022/04/19 01:19:40;;;;;;;6.30;4.37;;;3.70;99.90;;;;;;5094673;28;20204;-66
2022/04/19 01:22:12;;;;;;;6.40;4.60;;;3.70;99.90;;;;;;5094659;28;20204;-66
2022/04/19 01:24:40;;;;;;;5.63;4.23;;;3.60;99.90;;;;;;5094654;28;20189;-66
2022/04/19 01:27:09;;;;;;;5.60;4.23;;;3.60;99.90;;;;;;5094537;28;20554;-66
2022/04/19 01:29:36;;;;;;;5.33;4.10;;;3.60;99.90;;;;;;5094484;28;20311;-66
2022/04/19 01:32:04;;;;;;;6.33;4.43;;;3.60;99.90;;;;;;5094551;28;20204;-68
2022/04/19 01:34:31;;;;;;;7.30;4.40;;;3.50;99.90;;;;;;5094373;28;20200;-65
2022/04/19 01:36:58;;;;;;;5.80;4.20;;;3.50;99.90;;;;;;5094503;28;20591;-67
2022/04/19 01:42:08;;;;;;;5.47;3.97;;;3.40;99.90;;;;;;5093707;28;20196;-65
2022/04/19 01:44:36;;;;;;;9.63;4.90;;;3.40;99.90;;;;;;5094134;28;20200;-66
2022/04/19 01:47:07;;;;;;;4.63;3.80;;;3.40;99.90;;;;;;5094060;28;20231;-66
2022/04/19 01:49:34;;;;;;;5.37;3.83;;;3.40;99.90;;;;;;5094133;28;20701;-67
2022/04/19 01:52:01;;;;;;;4.53;3.83;;;3.40;99.90;;;;;;5094123;28;20220;-65
2022/04/19 01:54:30;;;;;;;5.10;3.70;;;3.40;99.90;;;;;;5093999;28;20666;-65
2022/04/19 01:56:57;;;;;;;5.50;4.10;;;3.40;99.90;;;;;;5094135;28;20208;-67
2022/04/19 01:59:23;;;;;;;5.57;3.90;;;3.30;99.90;;;;;;5093988;28;20587;-67
2022/04/19 02:01:51;;;;;;;5.70;3.93;;;3.30;99.90;;;;;;5093687;28;20299;-67
2022/04/19 02:04:19;;;;;;;6.20;3.70;;;3.30;99.90;;;;;;5094031;28;20207;-66
2022/04/19 02:06:45;;;;;;;4.80;3.60;;;3.30;99.90;;;;;;5093372;28;20253;-65
2022/04/19 02:09:12;;;;;;;5.63;4.10;;;3.30;99.90;;;;;;5093796;28;20227;-66
2022/04/19 02:11:40;;;;;;;4.03;3.40;;;3.20;99.90;;;;;;5093617;28;20215;-68
2022/04/19 02:14:10;;;;;;;5.13;3.60;;;3.20;99.90;;;;;;5093807;28;20208;-65
2022/04/19 02:16:37;;;;;;;4.67;3.40;;;3.20;99.90;;;;;;5093511;28;20257;-66
2022/04/19 02:19:04;;;;;;;5.57;3.90;;;3.20;99.90;;;;;;5093658;28;20200;-66
2022/04/19 02:21:32;;;;;;;4.33;3.60;;;3.20;99.90;;;;;;5093497;28;20200;-67
2022/04/19 02:23:59;;;;;;;5.03;3.70;;;3.20;99.90;;;;;;5093259;28;20200;-66
2022/04/19 02:26:25;;;;;;;6.00;3.70;;;3.20;99.90;;;;;;5093360;28;20207;-66
2022/04/19 02:28:54;;;;;;;5.60;4.17;;;3.20;99.90;;;;;;5092993;28;20239;-66
2022/04/19 02:31:21;;;;;;;4.60;3.97;;;3.10;99.90;;;;;;5093279;28;20208;-67
2022/04/19 02:33:47;;;;;;;5.40;3.93;;;3.10;99.90;;;;;;5093345;28;20204;-66
2022/04/19 02:36:14;;;;;;;7.07;4.10;;;3.10;99.90;;;;;;5093254;28;20214;-66
2022/04/19 02:38:41;;;;;;;7.03;4.53;;;3.10;99.90;;;;;;5093098;28;20206;-65
2022/04/19 02:41:08;;;;;;;5.90;4.07;;;3.10;99.90;;;;;;5093195;28;20204;-66
2022/04/19 02:43:35;;;;;;;6.47;4.50;;;3.10;99.90;;;;;;5092777;28;20204;-66
2022/04/19 02:46:04;;;;;;;6.00;3.97;;;3.10;99.90;;;;;;5092902;28;20206;-66
2022/04/19 02:48:31;;;;;;;5.50;3.90;;;3.00;99.90;;;;;;5092817;28;20315;-66
2022/04/19 02:51:00;;;;;;;6.63;4.37;;;3.00;99.90;;;;;;5092959;28;20211;-66
2022/04/19 02:53:27;;;;;;;5.30;3.73;;;3.00;99.90;;;;;;5092778;28;20200;-66
2022/04/19 02:55:54;;;;;;;5.57;4.10;;;3.00;99.90;;;;;;5092937;28;20200;-66
2022/04/19 02:58:23;;;;;;;5.60;4.20;;;3.00;99.90;;;;;;5092539;28;20211;-67
2022/04/19 03:00:50;;;;;;;5.87;4.33;;;3.00;99.90;;;;;;5092920;28;20303;-68
2022/04/19 03:03:18;;;;;;;6.27;4.37;;;3.10;99.90;;;;;;5092776;28;20200;-69
2022/04/19 03:05:45;;;;;;;5.63;3.90;;;3.10;99.90;;;;;;5092890;28;20210;-66
2022/04/19 03:08:11;;;;;;;6.60;4.50;;;3.00;99.90;;;;;;5092653;28;20699;-68
2022/04/19 03:10:38;;;;;;;5.67;4.40;;;3.00;99.90;;;;;;5092299;28;20204;-66
2022/04/19 03:13:05;;;;;;;7.47;4.43;;;3.00;99.90;;;;;;5092287;28;20204;-66
2022/04/19 03:15:34;;;;;;;5.93;4.10;;;3.00;99.90;;;;;;5092433;28;20204;-66
2022/04/19 03:18:01;;;;;;;7.10;4.30;;;3.00;99.90;;;;;;5091755;28;20199;-66
2022/04/19 03:20:29;;;;;;;7.63;4.80;;;3.00;99.90;;;;;;5092418;28;20199;-66
2022/04/19 03:28:24;;;;;;;8.13;5.07;;;3.00;99.90;;;;;;5091914;28;20234;-66
2022/04/19 03:30:51;;;;;;;7.87;4.40;;;3.00;99.90;;;;;;5092472;28;20211;-68
2022/04/19 03:33:18;;;;;;;5.90;4.30;;;3.00;99.90;;;;;;5092129;28;20253;-66
2022/04/19 03:35:46;;;;;;;7.10;4.63;;;3.00;99.90;;;;;;5092051;28;20207;-68
2022/04/19 03:38:13;;;;;;;6.53;4.63;;;3.00;99.90;;;;;;5091791;28;20207;-67
2022/04/19 03:40:40;;;;;;;5.97;3.90;;;2.90;99.90;;;;;;5092148;28;20297;-66
2022/04/19 03:43:08;;;;;;;6.20;4.07;;;2.90;99.90;;;;;;5092188;28;20226;-66
2022/04/19 03:45:35;;;;;;;5.37;3.97;;;2.90;99.90;;;;;;5092088;28;20565;-66
2022/04/19 03:48:02;;;;;;;5.17;3.70;;;3.00;99.90;;;;;;5090301;28;20236;-66
2022/04/19 03:50:29;;;;;;;4.80;3.53;;;3.00;99.90;;;;;;5091840;28;20287;-67
2022/04/19 03:52:57;;;;;;;5.83;4.13;;;3.00;99.90;;;;;;5092026;28;20262;-66
2022/04/19 03:55:24;;;;;;;5.40;3.80;;;3.00;99.90;;;;;;5092001;28;20661;-66
2022/04/19 03:57:51;;;;;;;6.63;4.00;;;3.10;99.90;;;;;;5092016;28;20201;-67
2022/04/19 04:00:21;;;;;;;4.23;3.50;;;3.10;99.90;;;;;;5091649;28;20673;-66
2022/04/19 04:02:48;;;;;;;3.80;3.30;;;3.10;99.90;;;;;;5091969;28;20204;-66
2022/04/19 04:05:15;;;;;;;4.30;3.40;;;3.00;99.90;;;;;;5091846;28;20560;-66
2022/04/19 04:07:42;;;;;;;5.43;3.60;;;3.00;99.90;;;;;;5091850;28;20206;-65
2022/04/19 04:10:10;;;;;;;4.57;3.73;;;3.10;99.90;;;;;;5091883;28;20571;-65
2022/04/19 04:12:37;;;;;;;5.17;3.63;;;3.10;99.90;;;;;;5091824;28;20208;-67
2022/04/19 04:15:05;;;;;;;3.83;3.33;;;3.20;99.90;;;;;;5091535;28;20199;-65
2022/04/19 04:17:32;;;;;;;4.10;3.37;;;3.10;99.90;;;;;;5091469;28;20322;-66
2022/04/19 04:19:59;;;;;;;4.50;3.40;;;3.20;99.90;;;;;;5091692;28;20200;-66
2022/04/19 04:22:26;;;;;;;6.47;3.17;;;3.30;99.90;;;;;;5091340;28;20216;-66
2022/04/19 04:24:52;;;;;;;4.13;3.30;;;3.30;99.90;;;;;;5091668;28;20564;-66
2022/04/19 04:27:21;;;;;;;5.60;3.60;;;3.20;99.90;;;;;;5091224;28;20208;-67
2022/04/19 04:29:48;;;;;;;4.50;3.40;;;3.30;99.90;;;;;;5094804;28;20223;-67
2022/04/19 04:32:15;;;;;;;3.50;3.10;;;3.30;99.90;;;;;;5095579;28;20211;-66
2022/04/19 04:34:42;;;;;;;3.97;3.30;;;3.40;99.90;;;;;;5095628;28;20222;-67
2022/04/19 04:37:09;;;;;;;5.43;3.90;;;3.40;99.90;;;;;;5095501;28;20200;-66
2022/04/19 04:39:35;;;;;;;4.27;3.30;;;3.50;99.90;;;;;;5095475;28;20196;-66
2022/04/19 04:42:02;;;;;;;5.13;3.00;;;3.60;99.90;;;;;;5095155;28;20211;-67
2022/04/19 04:44:31;;;;;;;4.97;3.67;;;3.70;99.90;;;;;;5095421;28;20253;-65
2022/04/19 04:49:42;;;;;;;4.23;3.30;;;3.80;99.90;;;;;;5095081;28;20689;-66
2022/04/19 04:52:11;;;;;;;5.83;3.67;;;3.90;99.90;;;;;;5095001;28;20204;-66
2022/04/19 04:54:39;;;;;;;4.23;3.00;;;3.90;99.90;;;;;;5094635;28;20211;-66
2022/04/19 04:57:07;;;;;;;3.97;3.13;;;4.00;99.90;;;;;;5094755;28;20224;-67
2022/04/19 04:59:36;;;;;;;4.63;3.10;;;4.10;99.90;;;;;;5094735;28;20211;-66
2022/04/19 05:02:04;;;;;;;4.43;3.23;;;4.10;99.90;;;;;;5094305;28;20208;-66
2022/04/19 05:04:32;;;;;;;4.37;3.23;;;4.10;99.90;;;;;;5095088;28;20645;-67
2022/04/19 05:06:59;;;;;;;5.00;3.23;;;4.10;99.90;;;;;;5094665;28;20215;-66
2022/04/19 05:09:26;;;;;;;3.63;2.87;;;4.20;99.90;;;;;;5095071;28;20226;-66
2022/04/19 05:11:53;;;;;;;4.07;3.30;;;4.20;99.90;;;;;;5095324;28;20204;-66
2022/04/19 05:14:20;;;;;;;3.97;3.37;;;4.30;99.90;;;;;;5094894;28;20208;-66
2022/04/19 05:16:49;;;;;;;4.60;3.33;;;4.40;99.90;;;;;;5094554;28;20226;-66
2022/04/19 05:19:16;;;;;;;3.77;3.10;;;4.30;99.90;;;;;;5094208;28;20666;-65
2022/04/19 05:21:43;;;;;;;4.90;3.20;;;4.40;99.90;;;;;;5094783;28;20569;-65
2022/04/19 05:24:10;;;;;;;4.90;3.60;;;4.40;99.90;;;;;;5094592;28;20203;-66
2022/04/19 05:26:37;;;;;;;4.70;3.43;;;4.40;99.90;;;;;;5094538;28;20204;-67
2022/04/19 05:29:04;;;;;;;4.37;3.67;;;4.50;99.90;;;;;;5094317;28;20228;-66
2022/04/19 05:31:31;;;;;;;4.53;3.53;;;4.60;99.90;;;;;;5094177;28;20214;-66
2022/04/19 05:33:59;;;;;;;3.83;3.33;;;4.60;99.90;;;;;;5094066;28;20204;-66
2022/04/19 05:36:26;;;;;;;8.10;3.23;;;4.60;99.90;;;;;;5094470;28;20204;-67
2022/04/19 05:38:54;;;;;;;4.77;3.20;;;4.60;99.90;;;;;;5094307;28;20204;-66
2022/04/19 05:41:21;;;;;;;5.27;3.60;;;4.70;99.90;;;;;;5093316;28;20210;-66
2022/04/19 05:43:48;;;;;;;5.10;3.53;;;4.80;99.90;;;;;;5094314;28;20698;-66
2022/04/19 05:46:17;;;;;;;4.70;3.40;;;4.80;99.90;;;;;;5093985;28;20283;-66
2022/04/19 05:48:44;;;;;;;5.87;3.87;;;4.90;99.90;;;;;;5094161;28;20227;-67
2022/04/19 05:51:12;;;;;;;6.03;3.90;;;5.00;99.90;;;;;;5094038;28;20680;-66
2022/04/19 05:53:39;;;;;;;5.70;4.03;;;5.00;99.90;;;;;;5094202;28;20204;-67
2022/04/19 05:56:06;;;;;;;7.50;4.53;;;5.10;99.90;;;;;;5093989;28;20206;-66
2022/04/19 05:58:33;;;;;;;6.63;4.60;;;5.10;99.90;;;;;;5093895;28;20202;-67
2022/04/19 06:01:01;;;;;;;5.97;4.30;;;5.10;99.90;;;;;;5093854;28;20210;-66
2022/04/19 06:06:14;;;;;;;7.17;4.60;;;5.10;99.90;;;;;;5093675;28;20195;-67
2022/04/19 06:08:42;;;;;;;6.60;4.63;;;5.00;99.90;;;;;;5093861;28;20585;-67
2022/04/19 06:11:11;;;;;;;7.23;4.87;;;5.00;99.90;;;;;;5093511;28;20231;-67
2022/04/19 06:13:38;;;;;;;6.73;4.03;;;5.10;99.90;;;;;;5093790;28;20204;-67
2022/04/19 06:16:05;;;;;;;8.90;4.93;;;5.10;99.90;;;;;;5093152;28;20206;-66
2022/04/19 06:18:33;;;;;;;7.73;4.60;;;5.10;99.90;;;;;;5093267;28;20204;-66
2022/04/19 06:20:59;;;;;;;6.30;4.53;;;5.00;99.90;;;;;;5093393;28;20208;-67
2022/04/19 06:23:28;;;;;;;7.57;5.10;;;4.90;99.90;;;;;;5093505;28;20200;-67
2022/04/19 06:25:54;;;;;;;8.77;5.03;;;5.00;99.90;;;;;;5092924;28;20210;-66
2022/04/19 06:28:21;;;;;;;6.73;4.73;;;5.10;99.90;;;;;;5093328;28;20250;-67
2022/04/19 06:30:48;;;;;;;8.70;5.13;;;5.10;99.90;;;;;;5093470;28;20748;-66
2022/04/19 06:33:15;;;;;;;6.57;4.97;;;5.10;99.90;;;;;;5093391;28;20688;-66
2022/04/19 06:35:42;;;;;;;7.27;5.07;;;5.10;99.90;;;;;;5093454;28;20211;-67
2022/04/19 06:38:09;;;;;;;6.80;4.93;;;5.20;99.90;;;;;;5093156;28;20208;-66
2022/04/19 06:40:37;;;;;;;6.73;5.37;;;5.30;99.90;;;;;;5093193;28;20222;-67
2022/04/19 06:43:04;;;;;;;6.67;4.67;;;5.30;99.90;;;;;;5092762;28;20211;-67
2022/04/19 06:45:31;;;;;;;6.90;5.10;;;5.40;99.90;;;;;;5093237;28;20235;-66
2022/04/19 06:47:59;;;;;;;7.50;4.70;;;5.30;99.90;;;;;;5092566;28;20286;-67
2022/04/19 06:50:26;;;;;;;7.30;5.10;;;5.30;99.90;;;;;;5092670;28;20223;-68
2022/04/19 06:52:53;;;;;;;9.10;5.40;;;5.30;99.90;;;;;;5091673;28;20285;-67
2022/04/19 06:55:20;;;;;;;6.90;5.00;;;5.30;99.90;;;;;;5093130;28;20200;-66
2022/04/19 06:57:49;;;;;;;6.40;4.70;;;5.40;99.90;;;;;;5092910;28;20249;-66
2022/04/19 07:00:17;;;;;;;7.17;5.10;;;5.50;99.90;;;;;;5093038;28;20610;-67
2022/04/19 07:02:45;;;;;;;7.13;4.60;;;5.60;99.90;;;;;;5092516;28;20200;-66
2022/04/19 07:05:12;;;;;;;7.47;4.93;;;5.60;99.90;;;;;;5092747;28;20204;-67
2022/04/19 07:07:42;;;;;;;8.27;5.10;;;5.50;99.90;;;;;;5092822;28;20269;-67
2022/04/19 07:10:10;;;;;;;6.83;4.73;;;5.60;99.90;;;;;;5092574;28;20458;-66
2022/04/19 07:12:37;;;;;;;7.73;5.20;;;5.60;99.90;;;;;;5092699;28;20208;-68
2022/04/19 07:15:07;;;;;;;7.47;5.13;;;5.60;99.90;;;;;;5092394;28;20200;-67
2022/04/19 07:17:37;;;;;;;7.83;4.77;;;5.60;99.90;;;;;;5092651;28;20210;-67
2022/04/19 07:28:17;;;;;;;7.23;5.00;;;5.80;99.90;;;;;;5092456;28;20799;-68
2022/04/19 07:30:46;;;;;;;6.40;4.97;;;5.90;99.90;;;;;;5092039;28;20693;-67
2022/04/19 07:33:12;;;;;;;8.73;5.60;;;5.90;99.90;;;;;;5092378;28;20200;-66
2022/04/19 07:35:40;;;;;;;8.97;6.20;;;5.90;99.90;;;;;;5092309;28;20558;-66
2022/04/19 07:38:07;;;;;;;10.63;5.93;;;6.00;99.90;;;;;;5092312;28;20222;-67
2022/04/19 07:40:35;;;;;;;9.80;5.30;;;6.00;99.90;;;;;;5092194;28;20196;-67
2022/04/19 07:43:02;;;;;;;7.93;5.17;;;6.10;99.90;;;;;;5091857;28;20200;-65
2022/04/19 07:45:29;;;;;;;7.40;5.50;;;6.10;99.90;;;;;;5091969;28;20215;-67
2022/04/19 07:47:57;;;;;;;8.47;5.27;;;6.10;99.90;;;;;;5091595;28;20228;-67
2022/04/19 07:50:24;;;;;;;8.67;5.10;;;6.00;99.90;;;;;;5091599;28;20231;-66
2022/04/19 07:52:51;;;;;;;7.67;4.80;;;6.00;99.90;;;;;;5092007;28;20547;-66
2022/04/19 07:55:18;;;;;;;7.93;4.50;;;6.00;99.90;;;;;;5091755;28;20211;-66
2022/04/19 07:57:44;;;;;;;6.77;4.43;;;6.10;99.90;;;;;;5091964;28;20563;-66
2022/04/19 08:00:13;;;;;;;7.23;4.53;;;6.20;99.90;;;;;;5091871;28;20299;-65
2022/04/19 08:02:40;;;;;;;8.03;5.00;;;6.20;99.90;;;;;;5091880;28;20207;-68
2022/04/19 08:05:09;;;;;;;7.80;5.13;;;6.20;99.90;;;;;;5095859;28;20214;-67
2022/04/19 08:07:36;;;;;;;7.27;4.33;;;6.20;99.90;;;;;;5095589;28;20215;-66
2022/04/19 08:10:04;;;;;;;4.80;4.10;;;6.30;99.90;;;;;;5095875;28;20219;-66
2022/04/19 08:12:31;;;;;;;6.23;3.97;;;6.20;99.90;;;;;;5095812;28;20219;-67
2022/04/19 08:14:58;;;;;;;5.90;3.70;;;6.20;99.90;;;;;;5095790;28;20206;-66
2022/04/19 08:17:25;;;;;;;5.80;3.80;;;6.20;99.90;;;;;;5095627;28;20204;-66
2022/04/19 08:19:52;;;;;;;5.57;4.07;;;6.20;99.90;;;;;;5095889;28;20223;-66
2022/04/19 08:22:21;;;;;;;5.83;4.10;;;6.30;99.90;;;;;;5095858;28;20204;-66
2022/04/19 08:24:48;;;;;;;6.70;4.17;;;6.20;99.90;;;;;;5095441;28;20215;-66
2022/04/19 08:27:16;;;;;;;5.40;3.93;;;6.20;99.90;;;;;;5095503;28;20224;-67
2022/04/19 08:29:43;;;;;;;4.67;3.47;;;6.20;99.90;;;;;;5095400;28;20220;-66
2022/04/19 08:32:10;;;;;;;5.70;3.90;;;6.30;99.90;;;;;;5095904;28;20204;-66
2022/04/19 08:34:36;;;;;;;6.23;4.13;;;6.20;99.90;;;;;;5095516;28;20291;-66
2022/04/19 08:37:04;;;;;;;5.07;3.80;;;6.20;99.90;;;;;;5095484;28;20402;-66
2022/04/19 08:39:32;;;;;;;6.00;4.13;;;6.30;99.90;;;;;;5095402;28;20215;-66
2022/04/19 08:41:59;;;;;;;6.27;3.63;;;6.20;99.90;;;;;;5095468;28;20204;-66
2022/04/19 08:44:26;;;;;;;6.13;3.60;;;6.20;99.90;;;;;;5095554;28;20206;-66
2022/04/19 08:46:54;;;;;;;7.57;4.50;;;6.20;99.90;;;;;;5094900;28;20243;-67
2022/04/19 08:49:21;;;;;;;5.17;3.57;;;6.30;99.90;;;;;;5095221;28;20211;-66
2022/04/19 08:51:48;;;;;;;4.27;3.37;;;6.40;99.90;;;;;;5095206;28;20206;-67
2022/04/19 08:59:45;;;;;;;4.50;3.27;;;6.50;99.90;;;;;;5094890;28;20645;-65
2022/04/19 09:02:22;;;;;;;10.23;3.90;;;6.50;99.90;;;;;;5094965;28;20203;-66
2022/04/19 09:04:50;;;;;;;6.03;3.70;;;6.50;99.90;;;;;;5094697;28;20221;-66
2022/04/19 09:07:17;;;;;;;6.37;4.20;;;6.40;99.90;;;;;;5094971;28;20265;-66
2022/04/19 09:09:57;;;;;;;6.03;3.90;;;6.50;99.90;;;;;;5094718;28;20243;-66
2022/04/19 09:12:25;;;;;;;6.77;3.60;;;6.50;99.90;;;;;;5094944;28;20202;-67
2022/04/19 09:14:56;;;;;;;5.77;4.17;;;6.60;99.90;;;;;;5093866;28;20638;-67
2022/04/19 09:17:31;;;;;;;5.17;3.60;;;6.60;99.90;;;;;;5094710;28;20188;-67
2022/04/19 09:20:12;;;;;;;4.53;3.60;;;6.70;99.90;;;;;;5094693;28;20192;-68
2022/04/19 09:22:39;;;;;;;3.63;3.10;;;6.80;99.90;;;;;;5094620;28;20193;-68
2022/04/19 09:25:17;;;;;;;5.33;3.40;;;6.80;99.90;;;;;;5094483;28;20204;-67
2022/04/19 09:27:46;;;;;;;3.97;3.40;;;6.80;99.90;;;;;;5094369;28;20239;-65
2022/04/19 09:30:18;;;;;;;4.27;3.33;;;7.00;99.90;;;;;;5094427;28;20224;-66
2022/04/19 09:33:07;;;;;;;4.97;3.30;;;7.10;99.90;;;;;;5093983;28;20208;-68
2022/04/19 09:35:35;;;;;;;3.63;2.80;;;7.20;99.90;;;;;;5094235;28;20224;-67
2022/04/19 09:38:02;;;;;;;4.00;2.90;;;7.20;99.90;;;;;;5094402;28;20577;-67
2022/04/19 09:40:35;;;;;;;4.77;3.10;;;7.10;99.90;;;;;;5094172;28;20657;-66
2022/04/19 09:43:11;;;;;;;3.60;3.10;;;7.10;99.90;;;;;;5094411;28;20249;-68
2022/04/19 09:46:03;;;;;;;4.20;2.93;;;7.10;99.90;;;;;;5094316;28;20229;-67
2022/04/19 09:48:31;;;;;;;3.37;2.77;;;7.30;99.90;;;;;;5074195;28;20393;-67
2022/04/19 09:51:02;;;;;;;3.77;2.80;;;7.30;99.90;;;;;;5093992;28;20711;-66
2022/04/19 09:53:30;;;;;;;2.67;2.43;;;7.30;99.90;;;;;;5093820;28;20188;-66
2022/04/19 09:55:58;;;;;;;3.93;2.60;;;7.30;99.90;;;;;;5094099;28;20211;-69
2022/04/19 09:58:27;;;;;;;3.00;2.40;;;7.40;99.90;;;;;;5093890;28;20678;-66
2022/04/19 10:00:54;;;;;;;3.37;2.40;;;7.40;99.90;;;;;;5093979;28;20211;-66
2022/04/19 10:09:01;;;;;;;2.87;2.17;;;7.40;99.90;;;;;;5093639;28;20197;-67
2022/04/19 10:11:29;;;;;;;3.20;2.50;;;7.40;99.90;;;;;;5093303;28;20220;-67
2022/04/19 10:13:58;;;;;;;2.80;2.27;;;7.50;99.90;;;;;;5093370;28;20574;-66
2022/04/19 10:16:28;;;;;;;3.83;2.60;;;7.50;99.90;;;;;;5093462;28;20231;-66
2022/04/19 10:18:55;;;;;;;2.70;2.30;;;7.60;99.90;;;;;;5093781;28;20673;-67
2022/04/19 10:21:25;;;;;;;3.60;2.13;;;7.70;99.90;;;;;;5093187;28;20200;-66
2022/04/19 10:24:10;;;;;;;2.60;2.20;;;7.70;99.90;;;;;;5093477;28;20203;-66
2022/04/19 10:26:43;;;;;;;2.77;2.40;;;7.70;99.90;;;;;;5092606;28;20196;-66
2022/04/19 10:29:18;;;;;;;2.87;2.40;;;7.80;99.90;;;;;;5093052;28;20654;-68
2022/04/19 10:31:57;;;;;;;3.43;2.50;;;7.80;99.90;;;;;;5093269;28;20207;-68
2022/04/19 10:34:25;;;;;;;3.07;2.30;;;7.80;99.90;;;;;;5093110;28;20274;-67
2022/04/19 10:36:54;;;;;;;4.50;3.00;;;7.90;99.90;;;;;;5092803;28;20211;-68
2022/04/19 10:39:31;;;;;;;2.73;2.27;;;7.90;99.90;;;;;;5092961;28;20261;-66
2022/04/19 10:41:58;;;;;;;3.30;2.10;;;7.90;99.90;;;;;;5093208;28;20642;-68
2022/04/19 10:44:36;;;;;;;2.73;2.23;;;7.90;99.90;;;;;;5093037;28;20204;-67
2022/04/19 10:47:12;;;;;;;2.40;2.20;;;8.00;99.90;;;;;;5092828;28;20322;-67
2022/04/19 10:49:58;;;;;;;2.10;1.90;;;8.10;99.90;;;;;;5092736;28;20290;-66
2022/04/19 10:52:48;;;;;;;3.07;2.23;;;8.10;99.90;;;;;;5092878;28;20188;-66
2022/04/19 10:55:26;;;;;;;2.00;1.90;;;8.00;99.90;;;;;;5092745;28;20204;-67
2022/04/19 10:58:12;;;;;;;2.47;1.97;;;8.10;99.90;;;;;;5092832;28;20278;-67
2022/04/19 11:00:55;;;;;;;3.23;2.40;;;8.00;99.90;;;;;;5092933;28;20601;-67
2022/04/19 11:03:37;;;;;;;2.23;2.00;;;8.10;99.90;;;;;;5092723;28;20638;-67
2022/04/19 11:06:08;;;;;;;4.40;1.90;;;8.10;99.90;;;;;;5092693;28;20204;-66
2022/04/19 11:08:37;;;;;;;1.90;1.63;;;8.20;99.90;;;;;;5092269;28;20194;-67
2022/04/19 11:11:23;;;;;;;2.10;1.83;;;8.30;99.90;;;;;;5092391;28;20223;-67
2022/04/19 11:14:27;;;;;;;3.20;2.13;;;8.50;99.90;;;;;;5092658;28;20188;-67
2022/04/19 11:17:23;;;;;;;2.30;1.97;;;8.70;99.90;;;;;;5092598;28;20199;-67
2022/04/19 11:19:53;;;;;;;2.20;1.90;;;8.80;99.90;;;;;;5092345;28;20195;-67
2022/04/19 11:22:30;;;;;;;2.70;2.20;;;8.90;99.90;;;;;;5092220;28;20199;-68
2022/04/19 11:25:05;;;;;;;2.53;1.93;;;8.90;99.90;;;;;;5092619;28;20253;-66
2022/04/19 11:28:09;;;;;;;2.30;2.10;;;9.00;99.90;;;;;;5092398;28;20231;-67
2022/04/19 11:30:37;;;;;;;2.63;1.90;;;9.10;99.90;;;;;;5092020;28;20250;-66
2022/04/19 11:33:08;;;;;;;2.53;1.90;;;9.20;99.90;;;;;;5092339;28;20229;-68
2022/04/19 11:35:35;;;;;;;2.40;2.10;;;9.20;99.90;;;;;;5092302;28;20192;-67
2022/04/19 11:38:08;;;;;;;2.20;2.00;;;9.10;99.90;;;;;;5091725;28;20243;-66
2022/04/19 11:49:25;;;;;;;3.30;2.13;;;9.20;99.90;;;;;;5054868;28;20842;-66
2022/04/19 11:51:54;;;;;;;2.60;2.00;;;9.20;99.90;;;;;;5091959;28;20216;-67
2022/04/19 11:54:22;;;;;;;2.47;1.80;;;9.30;99.90;;;;;;5092077;28;20564;-67
2022/04/19 11:56:51;;;;;;;2.97;1.77;;;9.40;99.90;;;;;;5091810;28;20219;-67
2022/04/19 11:59:18;;;;;;;2.80;2.00;;;9.40;99.90;;;;;;5091930;28;20669;-67
2022/04/19 12:01:49;;;;;;;2.07;1.80;;;9.40;99.90;;;;;;5092021;28;20196;-66
2022/04/19 12:04:17;;;;;;;2.47;2.10;;;9.40;99.90;;;;;;5091872;28;20193;-67
2022/04/19 12:06:47;;;;;;;3.43;2.10;;;9.50;99.90;;;;;;5092024;28;20216;-67
2022/04/19 12:09:16;;;;;;;2.40;1.90;;;9.60;99.90;;;;;;5092139;28;20204;-67
2022/04/19 12:11:43;;;;;;;2.27;2.07;;;9.70;99.90;;;;;;5091865;28;20250;-67
2022/04/19 12:14:10;;;;;;;2.83;2.13;;;9.60;99.90;;;;;;5091706;28;20457;-67
2022/04/19 12:16:39;;;;;;;2.33;1.90;;;9.60;99.90;;;;;;5091782;28;20572;-66
2022/04/19 12:19:07;;;;;;;2.30;1.73;;;9.60;99.90;;;;;;5091440;28;20239;-66
2022/04/19 12:21:38;;;;;;;3.83;1.80;;;9.60;99.90;;;;;;5091471;28;20257;-69
2022/04/19 12:24:06;;;;;;;6.13;1.97;;;9.60;99.90;;;;;;5091722;28;20188;-67
2022/04/19 12:26:32;;;;;;;2.77;1.80;;;9.50;99.90;;;;;;5091371;28;20236;-65
2022/04/19 12:29:11;;;;;;;2.00;1.80;;;9.60;99.90;;;;;;5091371;28;20212;-66
2022/04/19 12:31:39;;;;;;;2.77;1.90;;;9.60;99.90;;;;;;5091814;28;20735;-66
2022/04/19 12:34:07;;;;;;;1.87;1.60;;;9.50;99.90;;;;;;5091313;28;20211;-67
2022/04/19 12:36:46;;;;;;;4.33;2.07;;;9.30;99.90;;;;;;5091714;28;20291;-66
2022/04/19 12:39:13;;;;;;;3.10;2.00;;;9.30;99.90;;;;;;5091493;28;20193;-66
2022/04/19 12:41:43;;;;;;;3.80;2.10;;;9.30;99.90;;;;;;5091551;28;20204;-67
2022/04/19 12:44:11;;;;;;;3.07;2.07;;;9.30;99.90;;;;;;5091794;28;20231;-68
2022/04/19 12:46:46;;;;;;;2.80;2.00;;;9.30;99.90;;;;;;5091193;28;20228;-66
2022/04/19 12:49:24;;;;;;;2.07;1.87;;;9.40;99.90;;;;;;5092240;28;20192;-68
2022/04/19 12:52:03;;;;;;;2.00;1.80;;;9.30;99.90;;;;;;5095137;28;20682;-66
2022/04/19 12:54:30;;;;;;;2.83;1.80;;;9.20;99.90;;;;;;5095472;28;20218;-67
2022/04/19 12:57:24;;;;;;;2.00;1.77;;;9.10;99.90;;;;;;5094969;28;20280;-67
2022/04/19 12:59:52;;;;;;;2.70;1.90;;;9.10;99.90;;;;;;5095101;28;20635;-66
2022/04/19 13:02:20;;;;;;;2.20;1.63;;;9.10;99.90;;;;;;5094935;28;20678;-67
2022/04/19 13:04:48;;;;;;;2.60;1.87;;;9.10;99.90;;;;;;5095325;28;20247;-67
2022/04/19 13:12:46;;;;;;;2.80;2.23;;;9.40;99.90;;;;;;5094626;28;20699;-68
2022/04/19 13:15:14;;;;;;;2.47;2.10;;;9.40;99.90;;;;;;5094720;28;20694;-67
2022/04/19 13:17:42;;;;;;;2.87;2.20;;;9.30;99.90;;;;;;5094907;28;20258;-67
2022/04/19 13:20:11;;;;;;;2.70;2.07;;;9.30;99.90;;;;;;5094413;28;20204;-66
2022/04/19 13:22:40;;;;;;;2.93;2.13;;;9.30;99.90;;;;;;5094773;28;20257;-66
2022/04/19 13:25:08;;;;;;;3.37;2.40;;;9.30;99.90;;;;;;5094439;28;20606;-65
2022/04/19 13:27:36;;;;;;;2.60;1.93;;;9.30;99.90;;;;;;5094150;28;20224;-66
2022/04/19 13:30:04;;;;;;;2.53;2.30;;;9.40;99.90;;;;;;5094375;28;20306;-66
2022/04/19 13:32:32;;;;;;;3.30;2.30;;;9.30;99.90;;;;;;5094481;28;20215;-66
2022/04/19 13:34:59;;;;;;;3.77;2.30;;;9.30;99.90;;;;;;5094388;28;20208;-67
2022/04/19 13:40:12;;;;;;;3.57;2.37;;;9.10;99.90;;;;;;5094418;28;20340;-65
2022/04/19 13:42:41;;;;;;;3.07;2.50;;;9.00;99.90;;;;;;5093979;28;20249;-67
2022/04/19 13:45:09;;;;;;;2.70;2.20;;;9.00;99.90;;;;;;5094140;28;20208;-67
2022/04/19 13:47:36;;;;;;;4.47;2.67;;;9.00;99.90;;;;;;5093620;28;20288;-67
2022/04/19 13:50:04;;;;;;;3.00;2.33;;;8.90;99.90;;;;;;5093696;28;20252;-68
2022/04/19 13:52:33;;;;;;;4.77;2.70;;;8.90;99.90;;;;;;5093992;28;20216;-67
2022/04/19 13:55:00;;;;;;;2.77;2.30;;;8.80;99.90;;;;;;5093667;28;20253;-67
2022/04/19 13:57:29;;;;;;;4.47;2.30;;;8.70;99.90;;;;;;5094150;28;20203;-68
2022/04/19 13:59:56;;;;;;;3.87;2.50;;;8.60;99.90;;;;;;5093670;28;20254;-66